sensor_id;sensor_type;location;lat;lon;timestamp;P1;durP1;ratioP1;P2;durP2;ratioP2
10537;SDS011;5317;49.048;8.468;2022-11-06T00:01:29;8.60;;;5.87;;
10537;SDS011;5317;49.048;8.468;2022-11-06T00:03:57;7.70;;;6.33;;
10537;SDS011;5317;49.048;8.468;2022-11-06T00:06:24;11.17;;;6.53;;
10537;SDS011;5317;49.048;8.468;2022-11-06T00:09:10;8.43;;;6.43;;
10537;SDS011;5317;49.048;8.468;2022-11-06T00:11:41;7.47;;;6.60;;
10537;SDS011;5317;49.048;8.468;2022-11-06T00:14:09;9.13;;;6.90;;
10537;SDS011;5317;49.048;8.468;2022-11-06T00:16:37;8.83;;;6.20;;
10537;SDS011;5317;49.048;8.468;2022-11-06T00:19:06;8.37;;;6.70;;
10537;SDS011;5317;49.048;8.468;2022-11-06T00:21:34;9.93;;;6.77;;
10537;SDS011;5317;49.048;8.468;2022-11-06T00:24:03;8.10;;;6.33;;
10537;SDS011;5317;49.048;8.468;2022-11-06T00:26:33;7.77;;;6.40;;
10537;SDS011;5317;49.048;8.468;2022-11-06T00:29:03;10.63;;;6.10;;
10537;SDS011;5317;49.048;8.468;2022-11-06T00:31:33;9.17;;;6.67;;
10537;SDS011;5317;49.048;8.468;2022-11-06T00:34:03;6.10;;;5.50;;
10537;SDS011;5317;49.048;8.468;2022-11-06T00:36:31;6.93;;;5.93;;
10537;SDS011;5317;49.048;8.468;2022-11-06T00:39:00;7.93;;;6.50;;
10537;SDS011;5317;49.048;8.468;2022-11-06T00:41:28;9.17;;;6.47;;
10537;SDS011;5317;49.048;8.468;2022-11-06T00:43:56;9.27;;;6.23;;
10537;SDS011;5317;49.048;8.468;2022-11-06T00:46:27;7.87;;;6.17;;
10537;SDS011;5317;49.048;8.468;2022-11-06T00:48:54;8.50;;;6.10;;
10537;SDS011;5317;49.048;8.468;2022-11-06T00:51:22;7.30;;;6.07;;
10537;SDS011;5317;49.048;8.468;2022-11-06T00:53:53;8.87;;;7.00;;
10537;SDS011;5317;49.048;8.468;2022-11-06T00:56:22;8.50;;;6.40;;
10537;SDS011;5317;49.048;8.468;2022-11-06T00:58:50;8.07;;;5.60;;
10537;SDS011;5317;49.048;8.468;2022-11-06T01:01:20;6.97;;;6.17;;
10537;SDS011;5317;49.048;8.468;2022-11-06T01:03:52;6.30;;;5.07;;
10537;SDS011;5317;49.048;8.468;2022-11-06T01:06:24;6.93;;;5.27;;
10537;SDS011;5317;49.048;8.468;2022-11-06T01:08:54;6.07;;;5.47;;
10537;SDS011;5317;49.048;8.468;2022-11-06T01:11:22;7.30;;;5.37;;
10537;SDS011;5317;49.048;8.468;2022-11-06T01:13:53;9.63;;;6.20;;
10537;SDS011;5317;49.048;8.468;2022-11-06T01:16:23;6.20;;;5.57;;
10537;SDS011;5317;49.048;8.468;2022-11-06T01:18:52;6.17;;;5.57;;
10537;SDS011;5317;49.048;8.468;2022-11-06T01:21:21;7.87;;;5.73;;
10537;SDS011;5317;49.048;8.468;2022-11-06T01:23:51;6.30;;;5.23;;
10537;SDS011;5317;49.048;8.468;2022-11-06T01:26:21;7.17;;;5.23;;
10537;SDS011;5317;49.048;8.468;2022-11-06T01:28:49;8.17;;;5.63;;
10537;SDS011;5317;49.048;8.468;2022-11-06T01:31:17;6.33;;;5.73;;
10537;SDS011;5317;49.048;8.468;2022-11-06T01:33:53;6.50;;;5.30;;
10537;SDS011;5317;49.048;8.468;2022-11-06T01:36:20;7.67;;;5.87;;
10537;SDS011;5317;49.048;8.468;2022-11-06T01:38:50;8.37;;;5.87;;
10537;SDS011;5317;49.048;8.468;2022-11-06T01:41:20;6.80;;;5.03;;
10537;SDS011;5317;49.048;8.468;2022-11-06T01:43:50;6.83;;;5.27;;
10537;SDS011;5317;49.048;8.468;2022-11-06T01:46:20;6.87;;;5.57;;
10537;SDS011;5317;49.048;8.468;2022-11-06T01:48:51;5.97;;;5.43;;
10537;SDS011;5317;49.048;8.468;2022-11-06T01:51:25;7.50;;;5.90;;
10537;SDS011;5317;49.048;8.468;2022-11-06T01:53:56;6.63;;;5.60;;
10537;SDS011;5317;49.048;8.468;2022-11-06T01:56:24;6.47;;;5.57;;
10537;SDS011;5317;49.048;8.468;2022-11-06T01:58:52;8.83;;;5.23;;
10537;SDS011;5317;49.048;8.468;2022-11-06T02:01:21;7.37;;;5.10;;
10537;SDS011;5317;49.048;8.468;2022-11-06T02:03:50;8.77;;;5.00;;
10537;SDS011;5317;49.048;8.468;2022-11-06T02:06:25;6.27;;;4.90;;
10537;SDS011;5317;49.048;8.468;2022-11-06T02:08:54;5.77;;;5.17;;
10537;SDS011;5317;49.048;8.468;2022-11-06T02:11:21;5.57;;;4.83;;
10537;SDS011;5317;49.048;8.468;2022-11-06T02:14:01;5.70;;;4.93;;
10537;SDS011;5317;49.048;8.468;2022-11-06T02:16:41;5.53;;;4.97;;
10537;SDS011;5317;49.048;8.468;2022-11-06T02:19:27;4.87;;;4.40;;
10537;SDS011;5317;49.048;8.468;2022-11-06T02:22:17;6.13;;;4.43;;
10537;SDS011;5317;49.048;8.468;2022-11-06T02:25:09;5.47;;;4.87;;
10537;SDS011;5317;49.048;8.468;2022-11-06T02:27:43;4.87;;;4.37;;
10537;SDS011;5317;49.048;8.468;2022-11-06T02:30:14;4.73;;;4.33;;
10537;SDS011;5317;49.048;8.468;2022-11-06T02:32:43;6.37;;;4.20;;
10537;SDS011;5317;49.048;8.468;2022-11-06T02:35:19;8.87;;;4.43;;
10537;SDS011;5317;49.048;8.468;2022-11-06T02:37:54;5.10;;;4.60;;
10537;SDS011;5317;49.048;8.468;2022-11-06T02:40:26;6.90;;;4.07;;
10537;SDS011;5317;49.048;8.468;2022-11-06T02:43:01;4.60;;;4.20;;
10537;SDS011;5317;49.048;8.468;2022-11-06T02:45:34;4.73;;;3.80;;
10537;SDS011;5317;49.048;8.468;2022-11-06T02:48:09;5.80;;;4.30;;
10537;SDS011;5317;49.048;8.468;2022-11-06T02:50:45;5.67;;;4.20;;
10537;SDS011;5317;49.048;8.468;2022-11-06T02:53:20;4.23;;;3.83;;
10537;SDS011;5317;49.048;8.468;2022-11-06T02:55:51;4.67;;;4.13;;
10537;SDS011;5317;49.048;8.468;2022-11-06T02:58:29;5.33;;;4.17;;
10537;SDS011;5317;49.048;8.468;2022-11-06T03:01:05;4.73;;;4.33;;
10537;SDS011;5317;49.048;8.468;2022-11-06T03:03:40;4.37;;;3.70;;
10537;SDS011;5317;49.048;8.468;2022-11-06T03:06:16;4.60;;;3.70;;
10537;SDS011;5317;49.048;8.468;2022-11-06T03:08:53;4.30;;;3.90;;
10537;SDS011;5317;49.048;8.468;2022-11-06T03:11:29;5.27;;;4.10;;
10537;SDS011;5317;49.048;8.468;2022-11-06T03:14:03;4.37;;;3.97;;
10537;SDS011;5317;49.048;8.468;2022-11-06T03:16:38;4.30;;;3.90;;
10537;SDS011;5317;49.048;8.468;2022-11-06T03:19:18;4.83;;;4.33;;
10537;SDS011;5317;49.048;8.468;2022-11-06T03:21:55;4.50;;;4.00;;
10537;SDS011;5317;49.048;8.468;2022-11-06T03:24:34;6.87;;;4.30;;
10537;SDS011;5317;49.048;8.468;2022-11-06T03:27:12;4.13;;;3.73;;
10537;SDS011;5317;49.048;8.468;2022-11-06T03:29:56;4.90;;;4.00;;
10537;SDS011;5317;49.048;8.468;2022-11-06T03:32:28;4.23;;;3.37;;
10537;SDS011;5317;49.048;8.468;2022-11-06T03:35:05;4.80;;;4.03;;
10537;SDS011;5317;49.048;8.468;2022-11-06T03:37:41;9.53;;;4.77;;
10537;SDS011;5317;49.048;8.468;2022-11-06T03:40:15;5.53;;;4.43;;
10537;SDS011;5317;49.048;8.468;2022-11-06T03:42:47;3.90;;;3.20;;
10537;SDS011;5317;49.048;8.468;2022-11-06T03:45:20;4.13;;;3.73;;
10537;SDS011;5317;49.048;8.468;2022-11-06T03:47:52;4.87;;;4.37;;
10537;SDS011;5317;49.048;8.468;2022-11-06T03:50:29;5.97;;;4.07;;
10537;SDS011;5317;49.048;8.468;2022-11-06T03:53:04;4.60;;;4.07;;
10537;SDS011;5317;49.048;8.468;2022-11-06T03:55:40;4.27;;;3.87;;
10537;SDS011;5317;49.048;8.468;2022-11-06T03:58:20;4.60;;;4.10;;
10537;SDS011;5317;49.048;8.468;2022-11-06T04:00:53;4.30;;;3.90;;
10537;SDS011;5317;49.048;8.468;2022-11-06T04:03:25;4.77;;;4.13;;
10537;SDS011;5317;49.048;8.468;2022-11-06T04:05:59;5.33;;;4.00;;
10537;SDS011;5317;49.048;8.468;2022-11-06T04:08:35;5.57;;;4.27;;
10537;SDS011;5317;49.048;8.468;2022-11-06T04:11:23;8.90;;;4.10;;
10537;SDS011;5317;49.048;8.468;2022-11-06T04:14:12;4.40;;;4.00;;
10537;SDS011;5317;49.048;8.468;2022-11-06T04:16:45;5.20;;;4.70;;
10537;SDS011;5317;49.048;8.468;2022-11-06T04:19:19;5.07;;;4.10;;
10537;SDS011;5317;49.048;8.468;2022-11-06T04:21:53;4.80;;;4.37;;
10537;SDS011;5317;49.048;8.468;2022-11-06T04:24:45;5.30;;;4.50;;
10537;SDS011;5317;49.048;8.468;2022-11-06T04:27:52;6.90;;;4.73;;
10537;SDS011;5317;49.048;8.468;2022-11-06T04:30:39;6.13;;;4.23;;
10537;SDS011;5317;49.048;8.468;2022-11-06T04:33:21;6.17;;;4.40;;
10537;SDS011;5317;49.048;8.468;2022-11-06T04:35:58;5.83;;;4.40;;
10537;SDS011;5317;49.048;8.468;2022-11-06T04:38:35;5.60;;;4.83;;
10537;SDS011;5317;49.048;8.468;2022-11-06T04:41:14;5.90;;;4.57;;
10537;SDS011;5317;49.048;8.468;2022-11-06T04:43:59;5.20;;;4.10;;
10537;SDS011;5317;49.048;8.468;2022-11-06T04:46:35;5.57;;;4.70;;
10537;SDS011;5317;49.048;8.468;2022-11-06T04:49:09;5.73;;;4.67;;
10537;SDS011;5317;49.048;8.468;2022-11-06T04:51:39;5.63;;;4.10;;
10537;SDS011;5317;49.048;8.468;2022-11-06T04:54:10;5.10;;;4.57;;
10537;SDS011;5317;49.048;8.468;2022-11-06T04:56:39;4.70;;;4.13;;
10537;SDS011;5317;49.048;8.468;2022-11-06T04:59:06;4.77;;;4.30;;
10537;SDS011;5317;49.048;8.468;2022-11-06T05:01:39;4.20;;;3.80;;
10537;SDS011;5317;49.048;8.468;2022-11-06T05:04:06;4.43;;;3.97;;
10537;SDS011;5317;49.048;8.468;2022-11-06T05:06:35;5.30;;;4.30;;
10537;SDS011;5317;49.048;8.468;2022-11-06T05:09:03;4.83;;;4.20;;
10537;SDS011;5317;49.048;8.468;2022-11-06T05:11:30;4.73;;;4.13;;
10537;SDS011;5317;49.048;8.468;2022-11-06T05:13:57;5.53;;;4.60;;
10537;SDS011;5317;49.048;8.468;2022-11-06T05:16:24;4.20;;;3.80;;
10537;SDS011;5317;49.048;8.468;2022-11-06T05:18:51;4.93;;;4.00;;
10537;SDS011;5317;49.048;8.468;2022-11-06T05:21:21;5.10;;;4.30;;
10537;SDS011;5317;49.048;8.468;2022-11-06T05:24:06;4.20;;;3.73;;
10537;SDS011;5317;49.048;8.468;2022-11-06T05:26:33;4.33;;;3.93;;
10537;SDS011;5317;49.048;8.468;2022-11-06T05:29:00;5.73;;;4.20;;
10537;SDS011;5317;49.048;8.468;2022-11-06T05:31:28;5.13;;;4.37;;
10537;SDS011;5317;49.048;8.468;2022-11-06T05:33:55;4.40;;;4.00;;
10537;SDS011;5317;49.048;8.468;2022-11-06T05:36:23;5.17;;;4.10;;
10537;SDS011;5317;49.048;8.468;2022-11-06T05:38:51;4.93;;;4.10;;
10537;SDS011;5317;49.048;8.468;2022-11-06T05:41:18;4.40;;;3.80;;
10537;SDS011;5317;49.048;8.468;2022-11-06T05:43:45;8.40;;;3.37;;
10537;SDS011;5317;49.048;8.468;2022-11-06T05:46:12;4.47;;;3.63;;
10537;SDS011;5317;49.048;8.468;2022-11-06T05:48:39;6.43;;;3.67;;
10537;SDS011;5317;49.048;8.468;2022-11-06T05:51:06;4.60;;;3.87;;
10537;SDS011;5317;49.048;8.468;2022-11-06T05:53:35;4.47;;;4.03;;
10537;SDS011;5317;49.048;8.468;2022-11-06T05:56:03;7.40;;;4.30;;
10537;SDS011;5317;49.048;8.468;2022-11-06T05:58:31;4.67;;;3.50;;
10537;SDS011;5317;49.048;8.468;2022-11-06T06:00:59;5.60;;;4.60;;
10537;SDS011;5317;49.048;8.468;2022-11-06T06:03:26;5.13;;;3.40;;
10537;SDS011;5317;49.048;8.468;2022-11-06T06:05:53;4.50;;;3.73;;
10537;SDS011;5317;49.048;8.468;2022-11-06T06:08:20;5.10;;;4.60;;
10537;SDS011;5317;49.048;8.468;2022-11-06T06:10:49;5.83;;;4.60;;
10537;SDS011;5317;49.048;8.468;2022-11-06T06:13:16;5.23;;;4.50;;
10537;SDS011;5317;49.048;8.468;2022-11-06T06:15:43;5.73;;;4.40;;
10537;SDS011;5317;49.048;8.468;2022-11-06T06:18:10;4.83;;;4.40;;
10537;SDS011;5317;49.048;8.468;2022-11-06T06:20:38;4.43;;;4.00;;
10537;SDS011;5317;49.048;8.468;2022-11-06T06:23:05;4.30;;;3.90;;
10537;SDS011;5317;49.048;8.468;2022-11-06T06:25:32;4.40;;;4.00;;
10537;SDS011;5317;49.048;8.468;2022-11-06T06:28:01;4.13;;;3.73;;
10537;SDS011;5317;49.048;8.468;2022-11-06T06:30:29;4.10;;;3.30;;
10537;SDS011;5317;49.048;8.468;2022-11-06T06:32:56;4.10;;;3.80;;
10537;SDS011;5317;49.048;8.468;2022-11-06T06:35:30;3.97;;;3.60;;
10537;SDS011;5317;49.048;8.468;2022-11-06T06:37:58;6.53;;;3.90;;
10537;SDS011;5317;49.048;8.468;2022-11-06T06:40:25;6.53;;;3.63;;
10537;SDS011;5317;49.048;8.468;2022-11-06T06:42:54;3.93;;;3.50;;
10537;SDS011;5317;49.048;8.468;2022-11-06T06:45:23;8.37;;;4.10;;
10537;SDS011;5317;49.048;8.468;2022-11-06T06:47:51;6.53;;;3.97;;
10537;SDS011;5317;49.048;8.468;2022-11-06T06:50:18;5.30;;;3.87;;
10537;SDS011;5317;49.048;8.468;2022-11-06T06:52:46;6.50;;;3.90;;
10537;SDS011;5317;49.048;8.468;2022-11-06T06:55:13;5.43;;;4.10;;
10537;SDS011;5317;49.048;8.468;2022-11-06T06:57:41;5.82;;;4.25;;
10537;SDS011;5317;49.048;8.468;2022-11-06T07:00:08;7.13;;;5.03;;
10537;SDS011;5317;49.048;8.468;2022-11-06T07:02:37;5.97;;;4.97;;
10537;SDS011;5317;49.048;8.468;2022-11-06T07:05:05;9.37;;;5.10;;
10537;SDS011;5317;49.048;8.468;2022-11-06T07:07:32;7.20;;;5.37;;
10537;SDS011;5317;49.048;8.468;2022-11-06T07:09:59;6.73;;;5.47;;
10537;SDS011;5317;49.048;8.468;2022-11-06T07:12:27;5.47;;;4.70;;
10537;SDS011;5317;49.048;8.468;2022-11-06T07:14:54;5.50;;;4.47;;
10537;SDS011;5317;49.048;8.468;2022-11-06T07:17:21;5.33;;;4.73;;
10537;SDS011;5317;49.048;8.468;2022-11-06T07:19:49;5.87;;;4.70;;
10537;SDS011;5317;49.048;8.468;2022-11-06T07:22:20;5.77;;;5.17;;
10537;SDS011;5317;49.048;8.468;2022-11-06T07:24:47;6.13;;;5.47;;
10537;SDS011;5317;49.048;8.468;2022-11-06T07:27:14;7.07;;;5.73;;
10537;SDS011;5317;49.048;8.468;2022-11-06T07:29:42;7.63;;;5.93;;
10537;SDS011;5317;49.048;8.468;2022-11-06T07:32:09;6.37;;;5.27;;
10537;SDS011;5317;49.048;8.468;2022-11-06T07:34:36;6.27;;;5.40;;
10537;SDS011;5317;49.048;8.468;2022-11-06T07:37:05;6.67;;;4.97;;
10537;SDS011;5317;49.048;8.468;2022-11-06T07:39:33;5.77;;;5.17;;
10537;SDS011;5317;49.048;8.468;2022-11-06T07:42:00;5.70;;;5.17;;
10537;SDS011;5317;49.048;8.468;2022-11-06T07:44:27;5.03;;;4.57;;
10537;SDS011;5317;49.048;8.468;2022-11-06T07:46:55;4.97;;;4.40;;
10537;SDS011;5317;49.048;8.468;2022-11-06T07:49:22;5.93;;;4.63;;
10537;SDS011;5317;49.048;8.468;2022-11-06T07:51:49;5.00;;;4.47;;
10537;SDS011;5317;49.048;8.468;2022-11-06T07:54:18;4.70;;;4.20;;
10537;SDS011;5317;49.048;8.468;2022-11-06T07:56:45;5.00;;;4.03;;
10537;SDS011;5317;49.048;8.468;2022-11-06T07:59:12;4.37;;;3.97;;
10537;SDS011;5317;49.048;8.468;2022-11-06T08:01:39;4.50;;;3.37;;
10537;SDS011;5317;49.048;8.468;2022-11-06T08:04:06;3.93;;;3.53;;
10537;SDS011;5317;49.048;8.468;2022-11-06T08:06:33;4.10;;;3.50;;
10537;SDS011;5317;49.048;8.468;2022-11-06T08:09:03;4.17;;;3.57;;
10537;SDS011;5317;49.048;8.468;2022-11-06T08:11:33;5.40;;;3.57;;
10537;SDS011;5317;49.048;8.468;2022-11-06T08:14:01;4.03;;;3.63;;
10537;SDS011;5317;49.048;8.468;2022-11-06T08:16:29;3.90;;;3.50;;
10537;SDS011;5317;49.048;8.468;2022-11-06T08:18:57;4.87;;;3.40;;
10537;SDS011;5317;49.048;8.468;2022-11-06T08:21:24;4.57;;;3.97;;
10537;SDS011;5317;49.048;8.468;2022-11-06T08:23:51;4.83;;;4.37;;
10537;SDS011;5317;49.048;8.468;2022-11-06T08:26:19;6.10;;;4.00;;
10537;SDS011;5317;49.048;8.468;2022-11-06T08:28:55;4.07;;;3.63;;
10537;SDS011;5317;49.048;8.468;2022-11-06T08:31:23;4.33;;;3.93;;
10537;SDS011;5317;49.048;8.468;2022-11-06T08:33:50;3.97;;;3.67;;
10537;SDS011;5317;49.048;8.468;2022-11-06T08:36:18;5.33;;;3.90;;
10537;SDS011;5317;49.048;8.468;2022-11-06T08:38:45;6.43;;;3.67;;
10537;SDS011;5317;49.048;8.468;2022-11-06T08:41:13;4.10;;;3.80;;
10537;SDS011;5317;49.048;8.468;2022-11-06T08:43:41;6.77;;;5.40;;
10537;SDS011;5317;49.048;8.468;2022-11-06T08:46:09;4.83;;;4.23;;
10537;SDS011;5317;49.048;8.468;2022-11-06T08:48:37;4.23;;;3.40;;
10537;SDS011;5317;49.048;8.468;2022-11-06T08:51:04;3.27;;;3.00;;
10537;SDS011;5317;49.048;8.468;2022-11-06T08:53:33;3.50;;;3.20;;
10537;SDS011;5317;49.048;8.468;2022-11-06T08:56:01;5.13;;;3.60;;
10537;SDS011;5317;49.048;8.468;2022-11-06T08:58:30;4.57;;;3.60;;
10537;SDS011;5317;49.048;8.468;2022-11-06T09:01:00;4.30;;;3.53;;
10537;SDS011;5317;49.048;8.468;2022-11-06T09:03:28;6.87;;;4.30;;
10537;SDS011;5317;49.048;8.468;2022-11-06T09:05:56;4.33;;;3.93;;
10537;SDS011;5317;49.048;8.468;2022-11-06T09:08:24;4.50;;;3.70;;
10537;SDS011;5317;49.048;8.468;2022-11-06T09:10:52;3.90;;;3.33;;
10537;SDS011;5317;49.048;8.468;2022-11-06T09:13:20;4.33;;;3.90;;
10537;SDS011;5317;49.048;8.468;2022-11-06T09:15:47;3.73;;;3.37;;
10537;SDS011;5317;49.048;8.468;2022-11-06T09:18:16;4.97;;;3.60;;
10537;SDS011;5317;49.048;8.468;2022-11-06T09:20:46;5.63;;;4.10;;
10537;SDS011;5317;49.048;8.468;2022-11-06T09:23:14;3.50;;;3.20;;
10537;SDS011;5317;49.048;8.468;2022-11-06T09:25:44;5.03;;;3.40;;
10537;SDS011;5317;49.048;8.468;2022-11-06T09:28:16;4.10;;;3.70;;
10537;SDS011;5317;49.048;8.468;2022-11-06T09:30:46;4.73;;;3.60;;
10537;SDS011;5317;49.048;8.468;2022-11-06T09:33:17;4.30;;;3.63;;
10537;SDS011;5317;49.048;8.468;2022-11-06T09:35:48;4.93;;;3.83;;
10537;SDS011;5317;49.048;8.468;2022-11-06T09:38:18;6.23;;;3.53;;
10537;SDS011;5317;49.048;8.468;2022-11-06T09:40:49;3.97;;;3.67;;
10537;SDS011;5317;49.048;8.468;2022-11-06T09:46:24;4.30;;;3.90;;
10537;SDS011;5317;49.048;8.468;2022-11-06T09:48:57;8.43;;;4.07;;
10537;SDS011;5317;49.048;8.468;2022-11-06T09:51:35;4.50;;;3.87;;
10537;SDS011;5317;49.048;8.468;2022-11-06T09:54:10;4.23;;;3.70;;
10537;SDS011;5317;49.048;8.468;2022-11-06T09:56:45;4.00;;;3.70;;
10537;SDS011;5317;49.048;8.468;2022-11-06T09:59:18;5.63;;;4.17;;
10537;SDS011;5317;49.048;8.468;2022-11-06T10:01:49;4.47;;;3.87;;
10537;SDS011;5317;49.048;8.468;2022-11-06T10:04:30;3.70;;;3.40;;
10537;SDS011;5317;49.048;8.468;2022-11-06T10:07:16;4.93;;;3.50;;
10537;SDS011;5317;49.048;8.468;2022-11-06T10:09:53;3.90;;;3.30;;
10537;SDS011;5317;49.048;8.468;2022-11-06T10:12:23;4.80;;;3.80;;
10537;SDS011;5317;49.048;8.468;2022-11-06T10:15:06;3.43;;;3.13;;
10537;SDS011;5317;49.048;8.468;2022-11-06T10:17:51;4.10;;;3.70;;
10537;SDS011;5317;49.048;8.468;2022-11-06T10:20:31;4.07;;;3.50;;
10537;SDS011;5317;49.048;8.468;2022-11-06T10:23:16;4.80;;;3.67;;
10537;SDS011;5317;49.048;8.468;2022-11-06T10:25:52;4.00;;;3.60;;
10537;SDS011;5317;49.048;8.468;2022-11-06T10:28:42;4.07;;;3.67;;
10537;SDS011;5317;49.048;8.468;2022-11-06T10:31:37;3.90;;;3.50;;
10537;SDS011;5317;49.048;8.468;2022-11-06T10:34:25;3.73;;;3.40;;
10537;SDS011;5317;49.048;8.468;2022-11-06T10:37:00;3.60;;;3.30;;
10537;SDS011;5317;49.048;8.468;2022-11-06T10:39:38;4.57;;;3.33;;
10537;SDS011;5317;49.048;8.468;2022-11-06T10:42:09;4.50;;;3.23;;
10537;SDS011;5317;49.048;8.468;2022-11-06T10:44:47;3.70;;;2.93;;
10537;SDS011;5317;49.048;8.468;2022-11-06T10:47:22;3.83;;;3.00;;
10537;SDS011;5317;49.048;8.468;2022-11-06T10:49:56;3.70;;;3.40;;
10537;SDS011;5317;49.048;8.468;2022-11-06T10:52:29;4.47;;;3.67;;
10537;SDS011;5317;49.048;8.468;2022-11-06T10:58:11;4.00;;;3.53;;
10537;SDS011;5317;49.048;8.468;2022-11-06T11:00:42;4.00;;;3.40;;
10537;SDS011;5317;49.048;8.468;2022-11-06T11:03:15;3.53;;;3.23;;
10537;SDS011;5317;49.048;8.468;2022-11-06T11:05:49;4.13;;;3.77;;
10537;SDS011;5317;49.048;8.468;2022-11-06T11:08:35;4.90;;;3.30;;
10537;SDS011;5317;49.048;8.468;2022-11-06T11:11:16;3.73;;;3.40;;
10537;SDS011;5317;49.048;8.468;2022-11-06T11:13:48;3.90;;;3.60;;
10537;SDS011;5317;49.048;8.468;2022-11-06T11:16:41;3.83;;;3.30;;
10537;SDS011;5317;49.048;8.468;2022-11-06T11:19:15;4.50;;;3.20;;
10537;SDS011;5317;49.048;8.468;2022-11-06T11:21:51;3.30;;;3.00;;
10537;SDS011;5317;49.048;8.468;2022-11-06T11:24:21;4.87;;;3.77;;
10537;SDS011;5317;49.048;8.468;2022-11-06T11:26:51;4.37;;;3.70;;
10537;SDS011;5317;49.048;8.468;2022-11-06T11:29:23;4.70;;;3.63;;
10537;SDS011;5317;49.048;8.468;2022-11-06T11:31:54;3.40;;;3.10;;
10537;SDS011;5317;49.048;8.468;2022-11-06T11:34:25;3.60;;;3.30;;
10537;SDS011;5317;49.048;8.468;2022-11-06T11:36:56;4.40;;;3.60;;
10537;SDS011;5317;49.048;8.468;2022-11-06T11:39:28;6.07;;;3.60;;
10537;SDS011;5317;49.048;8.468;2022-11-06T11:42:15;4.67;;;3.63;;
10537;SDS011;5317;49.048;8.468;2022-11-06T11:45:09;3.50;;;3.20;;
10537;SDS011;5317;49.048;8.468;2022-11-06T11:47:44;3.90;;;3.50;;
10537;SDS011;5317;49.048;8.468;2022-11-06T11:50:17;3.50;;;3.20;;
10537;SDS011;5317;49.048;8.468;2022-11-06T11:52:57;4.20;;;3.20;;
10537;SDS011;5317;49.048;8.468;2022-11-06T11:55:30;4.80;;;3.53;;
10537;SDS011;5317;49.048;8.468;2022-11-06T11:58:13;4.87;;;3.13;;
10537;SDS011;5317;49.048;8.468;2022-11-06T12:00:48;3.50;;;3.10;;
10537;SDS011;5317;49.048;8.468;2022-11-06T12:03:21;5.23;;;3.80;;
10537;SDS011;5317;49.048;8.468;2022-11-06T12:06:02;4.13;;;3.70;;
10537;SDS011;5317;49.048;8.468;2022-11-06T12:08:34;4.33;;;3.90;;
10537;SDS011;5317;49.048;8.468;2022-11-06T12:11:11;4.93;;;3.93;;
10537;SDS011;5317;49.048;8.468;2022-11-06T12:13:46;4.33;;;3.33;;
10537;SDS011;5317;49.048;8.468;2022-11-06T12:16:50;4.10;;;3.10;;
10537;SDS011;5317;49.048;8.468;2022-11-06T12:19:23;6.83;;;5.63;;
10537;SDS011;5317;49.048;8.468;2022-11-06T12:21:59;9.17;;;5.70;;
10537;SDS011;5317;49.048;8.468;2022-11-06T12:24:33;5.77;;;4.73;;
10537;SDS011;5317;49.048;8.468;2022-11-06T12:27:12;3.47;;;2.80;;
10537;SDS011;5317;49.048;8.468;2022-11-06T12:29:47;3.30;;;3.00;;
10537;SDS011;5317;49.048;8.468;2022-11-06T12:32:25;3.90;;;2.90;;
10537;SDS011;5317;49.048;8.468;2022-11-06T12:35:06;3.10;;;2.53;;
10537;SDS011;5317;49.048;8.468;2022-11-06T12:37:47;3.17;;;2.57;;
10537;SDS011;5317;49.048;8.468;2022-11-06T12:40:37;2.43;;;2.17;;
10537;SDS011;5317;49.048;8.468;2022-11-06T12:43:14;3.37;;;2.30;;
10537;SDS011;5317;49.048;8.468;2022-11-06T12:49:03;3.37;;;3.07;;
10537;SDS011;5317;49.048;8.468;2022-11-06T12:51:52;3.90;;;3.03;;
10537;SDS011;5317;49.048;8.468;2022-11-06T12:54:47;3.57;;;2.90;;
10537;SDS011;5317;49.048;8.468;2022-11-06T12:57:37;3.40;;;2.53;;
10537;SDS011;5317;49.048;8.468;2022-11-06T13:00:21;2.70;;;2.50;;
10537;SDS011;5317;49.048;8.468;2022-11-06T13:02:58;2.80;;;2.53;;
10537;SDS011;5317;49.048;8.468;2022-11-06T13:05:53;2.97;;;2.60;;
10537;SDS011;5317;49.048;8.468;2022-11-06T13:08:30;3.00;;;2.60;;
10537;SDS011;5317;49.048;8.468;2022-11-06T13:11:13;2.87;;;2.60;;
10537;SDS011;5317;49.048;8.468;2022-11-06T13:13:58;2.63;;;2.17;;
10537;SDS011;5317;49.048;8.468;2022-11-06T13:16:39;3.70;;;2.37;;
10537;SDS011;5317;49.048;8.468;2022-11-06T13:19:19;2.83;;;2.63;;
10537;SDS011;5317;49.048;8.468;2022-11-06T13:21:59;3.33;;;2.57;;
10537;SDS011;5317;49.048;8.468;2022-11-06T13:24:43;2.33;;;2.10;;
10537;SDS011;5317;49.048;8.468;2022-11-06T13:27:21;3.33;;;2.90;;
10537;SDS011;5317;49.048;8.468;2022-11-06T13:29:56;3.00;;;2.80;;
10537;SDS011;5317;49.048;8.468;2022-11-06T13:32:30;3.23;;;2.77;;
10537;SDS011;5317;49.048;8.468;2022-11-06T13:35:03;5.20;;;3.30;;
10537;SDS011;5317;49.048;8.468;2022-11-06T13:37:34;3.73;;;3.10;;
10537;SDS011;5317;49.048;8.468;2022-11-06T13:40:12;5.10;;;3.70;;
10537;SDS011;5317;49.048;8.468;2022-11-06T13:42:49;4.73;;;3.63;;
10537;SDS011;5317;49.048;8.468;2022-11-06T13:45:25;3.30;;;3.00;;
10537;SDS011;5317;49.048;8.468;2022-11-06T13:48:02;3.37;;;3.07;;
10537;SDS011;5317;49.048;8.468;2022-11-06T13:50:46;4.00;;;3.10;;
10537;SDS011;5317;49.048;8.468;2022-11-06T13:53:24;3.83;;;2.83;;
10537;SDS011;5317;49.048;8.468;2022-11-06T13:56:05;3.23;;;2.93;;
10537;SDS011;5317;49.048;8.468;2022-11-06T13:59:09;3.63;;;3.33;;
10537;SDS011;5317;49.048;8.468;2022-11-06T14:02:00;4.63;;;3.40;;
10537;SDS011;5317;49.048;8.468;2022-11-06T14:05:16;3.93;;;3.40;;
10537;SDS011;5317;49.048;8.468;2022-11-06T14:08:06;3.20;;;2.90;;
10537;SDS011;5317;49.048;8.468;2022-11-06T14:10:46;5.03;;;3.50;;
10537;SDS011;5317;49.048;8.468;2022-11-06T14:13:24;4.43;;;2.90;;
10537;SDS011;5317;49.048;8.468;2022-11-06T14:16:06;4.57;;;3.80;;
10537;SDS011;5317;49.048;8.468;2022-11-06T14:18:53;4.30;;;3.90;;
10537;SDS011;5317;49.048;8.468;2022-11-06T14:27:04;4.33;;;3.83;;
10537;SDS011;5317;49.048;8.468;2022-11-06T14:32:33;4.00;;;3.13;;
10537;SDS011;5317;49.048;8.468;2022-11-06T14:38:30;3.97;;;3.27;;
10537;SDS011;5317;49.048;8.468;2022-11-06T14:44:26;4.00;;;3.03;;
10537;SDS011;5317;49.048;8.468;2022-11-06T14:50:22;4.47;;;3.40;;
10537;SDS011;5317;49.048;8.468;2022-11-06T14:52:59;4.80;;;3.17;;
10537;SDS011;5317;49.048;8.468;2022-11-06T14:55:30;4.00;;;3.60;;
10537;SDS011;5317;49.048;8.468;2022-11-06T14:58:14;4.20;;;3.47;;
10537;SDS011;5317;49.048;8.468;2022-11-06T15:00:48;4.20;;;3.33;;
10537;SDS011;5317;49.048;8.468;2022-11-06T15:03:23;4.30;;;3.40;;
10537;SDS011;5317;49.048;8.468;2022-11-06T15:05:58;4.23;;;3.27;;
10537;SDS011;5317;49.048;8.468;2022-11-06T15:17:24;5.57;;;3.77;;
10537;SDS011;5317;49.048;8.468;2022-11-06T15:20:04;4.80;;;4.03;;
10537;SDS011;5317;49.048;8.468;2022-11-06T15:22:52;4.77;;;4.20;;
10537;SDS011;5317;49.048;8.468;2022-11-06T15:25:28;6.20;;;4.30;;
10537;SDS011;5317;49.048;8.468;2022-11-06T15:27:59;4.73;;;4.17;;
10537;SDS011;5317;49.048;8.468;2022-11-06T15:30:39;6.33;;;4.53;;
10537;SDS011;5317;49.048;8.468;2022-11-06T15:33:13;7.27;;;5.33;;
10537;SDS011;5317;49.048;8.468;2022-11-06T15:35:50;6.27;;;5.13;;
10537;SDS011;5317;49.048;8.468;2022-11-06T15:38:21;7.13;;;5.13;;
10537;SDS011;5317;49.048;8.468;2022-11-06T15:40:52;9.03;;;5.67;;
10537;SDS011;5317;49.048;8.468;2022-11-06T15:43:24;5.67;;;5.03;;
10537;SDS011;5317;49.048;8.468;2022-11-06T15:46:04;9.47;;;5.47;;
10537;SDS011;5317;49.048;8.468;2022-11-06T15:48:42;5.93;;;4.50;;
10537;SDS011;5317;49.048;8.468;2022-11-06T15:53:55;6.17;;;5.00;;
10537;SDS011;5317;49.048;8.468;2022-11-06T15:56:22;6.70;;;5.10;;
10537;SDS011;5317;49.048;8.468;2022-11-06T15:59:08;6.97;;;4.70;;
10537;SDS011;5317;49.048;8.468;2022-11-06T16:01:40;5.23;;;4.73;;
10537;SDS011;5317;49.048;8.468;2022-11-06T16:04:14;6.83;;;5.17;;
10537;SDS011;5317;49.048;8.468;2022-11-06T16:06:45;6.37;;;5.07;;
10537;SDS011;5317;49.048;8.468;2022-11-06T16:09:15;6.13;;;5.43;;
10537;SDS011;5317;49.048;8.468;2022-11-06T16:11:47;6.77;;;5.90;;
10537;SDS011;5317;49.048;8.468;2022-11-06T16:14:17;7.67;;;6.90;;
10537;SDS011;5317;49.048;8.468;2022-11-06T16:16:47;7.50;;;6.73;;
10537;SDS011;5317;49.048;8.468;2022-11-06T16:19:19;8.23;;;7.20;;